createdAt,value
2019-05-07T00:02:10.577Z,7.93
2019-05-07T00:04:40.032Z,7.67
2019-05-07T00:07:09.554Z,8.43
2019-05-07T00:09:39.105Z,8.33
2019-05-07T00:12:08.600Z,9.17
2019-05-07T00:14:38.388Z,8.70
2019-05-07T00:17:07.918Z,8.43
2019-05-07T00:19:37.300Z,9.13
2019-05-07T00:22:06.699Z,9.27
2019-05-07T00:24:36.235Z,8.53
2019-05-07T00:27:05.734Z,9.03
2019-05-07T00:29:35.244Z,9.70
2019-05-07T00:32:04.662Z,9.07
2019-05-07T00:34:39.464Z,10.30
2019-05-07T00:37:32.254Z,9.27
2019-05-07T00:40:22.439Z,11.10
2019-05-07T00:43:22.791Z,10.70
2019-05-07T00:45:58.595Z,10.30
2019-05-07T00:48:28.141Z,10.10
2019-05-07T00:51:16.474Z,9.63
2019-05-07T00:53:45.912Z,9.80
2019-05-07T00:56:15.505Z,10.50
2019-05-07T00:58:44.909Z,11.10
2019-05-07T01:01:14.451Z,10.53
2019-05-07T01:03:43.966Z,11.70
2019-05-07T01:06:13.464Z,10.93
2019-05-07T01:08:43.155Z,9.47
2019-05-07T01:11:13.290Z,8.20
2019-05-07T01:13:43.312Z,8.63
2019-05-07T01:16:13.060Z,7.77
2019-05-07T01:18:42.455Z,7.90
2019-05-07T01:21:13.209Z,8.17
2019-05-07T01:23:42.994Z,7.80
2019-05-07T01:26:12.566Z,8.40
2019-05-07T01:29:02.814Z,7.47
2019-05-07T01:31:42.972Z,6.77
2019-05-07T01:34:40.095Z,7.07
2019-05-07T01:37:09.492Z,7.57
2019-05-07T01:39:38.993Z,6.40
2019-05-07T01:42:08.735Z,7.77
2019-05-07T01:44:38.143Z,8.77
2019-05-07T01:47:07.647Z,10.50
2019-05-07T01:49:37.191Z,9.60
2019-05-07T01:52:06.646Z,10.47
2019-05-07T01:54:36.036Z,9.80
2019-05-07T01:57:05.576Z,9.30
2019-05-07T01:59:35.078Z,9.67
2019-05-07T02:02:12.166Z,8.47
2019-05-07T02:04:52.214Z,8.67
2019-05-07T02:07:33.399Z,8.97
2019-05-07T02:10:11.977Z,9.00
2019-05-07T02:12:42.552Z,8.57
2019-05-07T02:15:12.210Z,7.63
2019-05-07T02:17:43.002Z,6.03
2019-05-07T02:20:13.279Z,6.43
2019-05-07T02:22:42.932Z,5.53
2019-05-07T02:25:12.793Z,6.30
2019-05-07T02:27:42.338Z,5.47
2019-05-07T02:30:14.752Z,6.33
2019-05-07T02:32:43.559Z,6.00
2019-05-07T02:35:13.830Z,5.97
2019-05-07T02:37:55.478Z,4.73
2019-05-07T02:40:25.881Z,5.17
2019-05-07T02:42:55.368Z,5.27
2019-05-07T02:45:46.701Z,5.00
2019-05-07T02:48:18.425Z,4.53
2019-05-07T02:50:56.778Z,5.80
2019-05-07T02:53:33.774Z,5.07
2019-05-07T02:56:03.809Z,5.10
2019-05-07T02:58:33.404Z,4.67
2019-05-07T03:01:04.721Z,4.87
2019-05-07T03:03:34.371Z,4.83
2019-05-07T03:06:03.787Z,4.47
2019-05-07T03:08:33.456Z,4.70
2019-05-07T03:11:03.632Z,4.37
2019-05-07T03:13:33.901Z,4.83
2019-05-07T03:16:04.010Z,5.30
2019-05-07T03:18:34.016Z,4.60
2019-05-07T03:21:12.767Z,4.83
2019-05-07T03:23:49.329Z,4.50
2019-05-07T03:26:23.288Z,4.17
2019-05-07T03:28:54.570Z,4.53
2019-05-07T03:31:40.375Z,4.23
2019-05-07T03:34:25.702Z,4.37
2019-05-07T03:36:57.194Z,4.10
2019-05-07T03:39:27.943Z,4.00
2019-05-07T03:41:57.327Z,4.43
2019-05-07T03:44:48.558Z,3.77
2019-05-07T03:47:33.212Z,4.13
2019-05-07T03:50:03.351Z,3.80
2019-05-07T03:52:33.641Z,3.67
2019-05-07T03:55:03.949Z,4.30
2019-05-07T03:57:33.830Z,3.30
2019-05-07T04:00:04.363Z,3.60
2019-05-07T04:02:34.038Z,3.80
2019-05-07T04:05:04.455Z,4.13
2019-05-07T04:07:34.059Z,3.77
2019-05-07T04:10:04.575Z,3.77
2019-05-07T04:12:34.472Z,3.37
2019-05-07T04:15:05.767Z,3.53
2019-05-07T04:17:35.254Z,3.73
2019-05-07T04:20:04.937Z,3.17
2019-05-07T04:22:34.965Z,2.80
2019-05-07T04:25:24.371Z,3.10
2019-05-07T04:28:03.821Z,3.30
2019-05-07T04:30:34.031Z,3.77
2019-05-07T04:33:05.793Z,2.73
2019-05-07T04:35:43.646Z,3.60
2019-05-07T04:38:13.930Z,3.43
2019-05-07T04:40:43.845Z,3.50
2019-05-07T04:43:15.958Z,3.40
2019-05-07T04:45:45.460Z,3.43
2019-05-07T04:48:15.020Z,3.10
2019-05-07T04:50:47.651Z,2.90
2019-05-07T04:53:17.259Z,3.60
2019-05-07T04:55:46.738Z,3.00
2019-05-07T04:58:16.284Z,3.73
2019-05-07T05:00:45.701Z,3.50
2019-05-07T05:03:23.761Z,3.13
2019-05-07T05:05:53.711Z,3.73
2019-05-07T05:08:23.670Z,3.00
2019-05-07T05:10:54.043Z,2.90
2019-05-07T05:13:24.254Z,3.30
2019-05-07T05:15:53.695Z,3.43
2019-05-07T05:18:23.643Z,3.20
2019-05-07T05:21:16.044Z,3.07
2019-05-07T05:24:12.647Z,3.27
2019-05-07T05:26:44.567Z,3.47
2019-05-07T05:29:13.941Z,3.30
2019-05-07T05:31:43.472Z,2.80
2019-05-07T05:34:13.292Z,3.27
2019-05-07T05:36:42.775Z,3.03
2019-05-07T05:39:13.236Z,2.70
2019-05-07T05:41:44.899Z,3.00
2019-05-07T05:44:25.369Z,3.10
2019-05-07T05:46:54.873Z,2.80
2019-05-07T05:49:24.373Z,2.17
2019-05-07T05:52:07.379Z,2.30
2019-05-07T05:54:50.053Z,2.70
2019-05-07T05:57:45.713Z,2.20
2019-05-07T06:00:49.908Z,2.60
2019-05-07T06:03:51.983Z,2.10
2019-05-07T06:06:32.871Z,1.97
2019-05-07T06:09:33.433Z,2.30
2019-05-07T06:12:32.723Z,1.73
2019-05-07T06:15:07.488Z,1.93
2019-05-07T06:17:54.231Z,1.63
2019-05-07T06:20:54.998Z,1.80
2019-05-07T06:23:46.594Z,1.63
2019-05-07T06:26:16.056Z,1.77
2019-05-07T06:28:45.642Z,1.70
2019-05-07T06:31:15.029Z,1.70
2019-05-07T06:33:44.436Z,2.07
2019-05-07T06:36:13.917Z,1.40
2019-05-07T06:38:49.387Z,1.30
2019-05-07T06:41:37.703Z,1.70
2019-05-07T06:44:12.681Z,1.43
2019-05-07T06:46:42.287Z,1.47
2019-05-07T06:49:12.684Z,1.60
2019-05-07T06:51:42.197Z,1.80
2019-05-07T06:54:12.960Z,1.97
2019-05-07T06:56:42.558Z,1.97
2019-05-07T06:59:17.905Z,1.70
2019-05-07T07:02:18.347Z,1.70
2019-05-07T07:05:18.136Z,1.70
2019-05-07T07:08:09.434Z,1.70
2019-05-07T07:10:56.598Z,1.60
2019-05-07T07:13:27.339Z,1.77
2019-05-07T07:15:56.890Z,1.60
2019-05-07T07:18:26.323Z,1.90
2019-05-07T07:20:56.074Z,1.57
2019-05-07T07:23:25.635Z,1.73
2019-05-07T07:25:55.216Z,1.57
2019-05-07T07:28:24.657Z,1.60
2019-05-07T07:31:23.378Z,1.63
2019-05-07T07:33:58.206Z,1.30
2019-05-07T07:36:32.062Z,1.20
2019-05-07T07:39:02.066Z,1.30
2019-05-07T07:41:42.162Z,1.20
2019-05-07T07:44:13.323Z,1.37
2019-05-07T07:46:43.050Z,1.30
2019-05-07T07:49:15.155Z,1.20
2019-05-07T07:51:45.651Z,1.27
2019-05-07T07:54:14.795Z,1.40
2019-05-07T07:57:03.163Z,1.37
2019-05-07T08:00:07.074Z,1.43
2019-05-07T08:02:42.544Z,1.50
2019-05-07T08:05:14.893Z,1.73
2019-05-07T08:07:44.352Z,1.20
2019-05-07T08:10:13.991Z,1.20
2019-05-07T08:12:43.512Z,1.20
2019-05-07T08:15:20.344Z,1.20
2019-05-07T08:17:45.201Z,1.40
2019-05-07T08:20:15.332Z,1.10
2019-05-07T08:22:44.933Z,1.57
2019-05-07T08:25:14.977Z,1.30
2019-05-07T08:27:44.377Z,1.60
2019-05-07T08:30:18.422Z,1.30
2019-05-07T08:33:02.146Z,1.30
2019-05-07T08:35:41.975Z,1.20
2019-05-07T08:38:12.777Z,1.60
2019-05-07T08:40:42.439Z,1.50
2019-05-07T08:43:12.554Z,1.40
2019-05-07T08:46:02.572Z,1.37
2019-05-07T08:48:36.013Z,1.70
2019-05-07T08:51:05.404Z,1.30
2019-05-07T08:53:34.795Z,1.30
2019-05-07T08:56:04.443Z,1.40
2019-05-07T08:58:34.209Z,1.40
2019-05-07T09:01:03.715Z,1.33
2019-05-07T09:03:45.292Z,1.40
2019-05-07T09:06:17.641Z,1.63
2019-05-07T09:08:47.103Z,1.00
2019-05-07T09:11:16.525Z,1.40
2019-05-07T09:13:46.022Z,1.50
2019-05-07T09:16:15.413Z,1.60
2019-05-07T09:18:44.833Z,1.60
2019-05-07T09:21:14.326Z,1.67
2019-05-07T09:23:43.810Z,1.40
2019-05-07T09:26:15.120Z,1.60
2019-05-07T09:28:52.436Z,1.30
2019-05-07T09:31:35.762Z,1.10
2019-05-07T09:34:05.357Z,1.10
2019-05-07T09:36:42.455Z,1.60
2019-05-07T09:39:12.157Z,1.30
2019-05-07T09:41:41.838Z,1.30
2019-05-07T09:44:11.916Z,1.40
2019-05-07T09:46:43.056Z,1.30
2019-05-07T09:49:12.609Z,1.30
2019-05-07T09:51:42.690Z,1.10
2019-05-07T09:54:12.714Z,1.30
2019-05-07T09:56:42.377Z,1.20
2019-05-07T09:59:12.575Z,1.20
2019-05-07T10:01:42.349Z,1.30
2019-05-07T10:04:11.946Z,1.43
2019-05-07T10:06:42.458Z,1.50
2019-05-07T10:09:12.130Z,1.23
2019-05-07T10:11:48.014Z,1.47
2019-05-07T10:14:17.636Z,1.33
2019-05-07T10:17:08.999Z,1.43
2019-05-07T10:19:38.489Z,1.20
2019-05-07T10:22:08.104Z,1.20
2019-05-07T10:24:37.872Z,1.20
2019-05-07T10:27:07.401Z,1.30
2019-05-07T10:29:37.300Z,1.40
2019-05-07T10:32:06.841Z,1.17
2019-05-07T10:34:36.235Z,1.50
2019-05-07T10:37:05.858Z,1.30
2019-05-07T10:39:36.346Z,1.30
2019-05-07T10:42:06.064Z,1.70
2019-05-07T10:44:43.301Z,1.30
2019-05-07T10:47:30.689Z,1.53
2019-05-07T10:50:33.048Z,1.63
2019-05-07T10:52:52.836Z,1.57
2019-05-07T10:55:22.451Z,1.57
2019-05-07T10:57:52.895Z,1.80
2019-05-07T11:00:25.800Z,1.57
2019-05-07T11:02:55.216Z,1.83
2019-05-07T11:05:24.627Z,2.00
2019-05-07T11:07:54.129Z,2.03
2019-05-07T11:10:23.824Z,1.80
2019-05-07T11:12:53.235Z,1.67
2019-05-07T11:15:22.807Z,1.50
2019-05-07T11:18:12.627Z,1.50
2019-05-07T11:20:49.295Z,1.80
2019-05-07T11:23:13.424Z,1.70
2019-05-07T11:25:42.937Z,2.03
2019-05-07T11:28:12.564Z,2.10
2019-05-07T11:30:43.939Z,1.93
2019-05-07T11:33:13.585Z,2.10
2019-05-07T11:35:43.214Z,2.13
2019-05-07T11:38:20.806Z,1.77
2019-05-07T11:40:43.792Z,1.77
2019-05-07T11:43:53.919Z,1.83
2019-05-07T11:46:44.468Z,1.80
2019-05-07T11:49:48.054Z,2.00
2019-05-07T11:52:23.380Z,2.10
2019-05-07T11:54:52.844Z,2.00
2019-05-07T11:57:22.258Z,2.13
2019-05-07T11:59:54.352Z,2.63
2019-05-07T12:02:23.009Z,2.57
2019-05-07T12:04:52.729Z,2.27
2019-05-07T12:07:22.512Z,2.20
2019-05-07T12:09:52.674Z,2.53
2019-05-07T12:12:22.320Z,2.57
2019-05-07T12:14:51.977Z,2.70
2019-05-07T12:17:22.385Z,3.00
2019-05-07T12:19:52.651Z,3.37
2019-05-07T12:22:39.726Z,3.13
2019-05-07T12:25:09.301Z,2.30
2019-05-07T12:27:38.730Z,2.97
2019-05-07T12:30:12.070Z,2.70
2019-05-07T12:33:03.153Z,3.00
2019-05-07T12:35:32.624Z,3.43
2019-05-07T12:38:02.218Z,2.97
2019-05-07T12:40:32.584Z,2.83
2019-05-07T12:43:02.194Z,2.67
2019-05-07T12:45:31.744Z,2.67
2019-05-07T12:48:02.402Z,2.73
2019-05-07T12:50:32.287Z,3.10
2019-05-07T12:53:12.330Z,3.13
2019-05-07T12:55:47.779Z,3.33
2019-05-07T12:58:17.277Z,3.60
2019-05-07T13:01:01.078Z,3.40
2019-05-07T13:03:34.810Z,3.07
2019-05-07T13:06:04.879Z,3.27
2019-05-07T13:08:34.429Z,3.47
2019-05-07T13:11:03.912Z,3.43
2019-05-07T13:13:33.370Z,3.07
2019-05-07T13:16:03.146Z,3.07
2019-05-07T13:18:32.684Z,3.07
2019-05-07T13:21:02.574Z,3.10
2019-05-07T13:23:32.149Z,3.20
2019-05-07T13:26:02.648Z,3.20
2019-05-07T13:28:32.128Z,3.10
2019-05-07T13:31:02.365Z,3.60
2019-05-07T13:33:34.537Z,3.83
2019-05-07T13:36:04.713Z,3.90
2019-05-07T13:38:52.814Z,3.10
2019-05-07T13:41:56.840Z,3.97
2019-05-07T13:44:56.060Z,3.93
2019-05-07T13:47:36.982Z,4.23
2019-05-07T13:50:08.236Z,4.93
2019-05-07T13:52:37.730Z,4.47
2019-05-07T13:55:07.976Z,4.60
2019-05-07T13:57:37.538Z,5.10
2019-05-07T14:00:12.902Z,4.57
2019-05-07T14:02:42.409Z,4.57
2019-05-07T14:05:14.096Z,4.20
2019-05-07T14:07:44.012Z,5.53
2019-05-07T14:10:14.231Z,5.40
2019-05-07T14:12:43.913Z,5.43
2019-05-07T14:15:13.708Z,5.53
2019-05-07T14:17:43.267Z,5.50
2019-05-07T14:20:13.123Z,5.97
2019-05-07T14:22:42.697Z,6.00
2019-05-07T14:25:12.427Z,5.97
2019-05-07T14:27:42.852Z,5.50
2019-05-07T14:30:13.135Z,6.70
2019-05-07T14:33:06.103Z,4.90
2019-05-07T14:35:46.139Z,6.03
2019-05-07T14:38:42.489Z,6.27
2019-05-07T14:41:12.991Z,6.33
2019-05-07T14:43:52.342Z,6.70
2019-05-07T14:46:22.030Z,7.00
2019-05-07T14:48:52.125Z,6.80
2019-05-07T14:51:22.160Z,6.63
2019-05-07T14:53:51.970Z,6.37
2019-05-07T14:56:23.191Z,7.17
2019-05-07T14:58:52.766Z,6.53
2019-05-07T15:01:22.505Z,7.60
2019-05-07T15:03:52.036Z,8.10
2019-05-07T15:06:21.963Z,8.03
2019-05-07T15:08:52.196Z,8.47
2019-05-07T15:11:21.925Z,8.70
2019-05-07T15:13:52.204Z,8.77
2019-05-07T15:16:22.523Z,7.97
2019-05-07T15:18:53.900Z,8.30
2019-05-07T15:21:23.747Z,8.93
2019-05-07T15:23:54.900Z,8.30
2019-05-07T15:26:24.580Z,8.30
2019-05-07T15:29:00.795Z,8.90
2019-05-07T15:32:05.708Z,7.80
2019-05-07T15:34:35.252Z,8.73
2019-05-07T15:37:04.825Z,9.13
2019-05-07T15:39:34.216Z,9.57
2019-05-07T15:42:03.895Z,8.67
2019-05-07T15:44:33.385Z,9.33
2019-05-07T15:47:06.977Z,9.10
2019-05-07T15:49:36.368Z,10.30
2019-05-07T15:52:12.429Z,7.87
2019-05-07T15:54:43.015Z,9.90
2019-05-07T15:57:15.328Z,10.20
2019-05-07T15:59:44.735Z,7.87
2019-05-07T16:02:28.982Z,8.63
2019-05-07T16:04:58.395Z,9.50
2019-05-07T16:07:27.806Z,7.87
2019-05-07T16:09:57.329Z,7.87
2019-05-07T16:12:26.808Z,9.33
2019-05-07T16:14:56.176Z,9.67
2019-05-07T16:17:47.778Z,9.73
2019-05-07T16:20:17.871Z,8.17
2019-05-07T16:22:54.837Z,8.10
2019-05-07T16:25:22.482Z,8.37
2019-05-07T16:27:52.724Z,8.07
2019-05-07T16:30:23.258Z,9.43
2019-05-07T16:32:55.351Z,8.27
2019-05-07T16:35:23.850Z,9.03
2019-05-07T16:37:53.371Z,8.27
2019-05-07T16:40:23.078Z,9.60
2019-05-07T16:42:52.583Z,10.10
2019-05-07T16:45:22.359Z,9.90
2019-05-07T16:47:52.216Z,10.20
2019-05-07T16:50:22.556Z,8.23
2019-05-07T16:52:52.567Z,10.63
2019-05-07T16:55:23.775Z,9.80
2019-05-07T16:58:08.114Z,10.33
2019-05-07T17:00:46.743Z,10.10
2019-05-07T17:03:20.880Z,10.33
2019-05-07T17:05:52.283Z,10.03
2019-05-07T17:08:35.724Z,10.57
2019-05-07T17:11:05.104Z,9.47
2019-05-07T17:13:34.527Z,11.00
2019-05-07T17:16:04.073Z,10.60
2019-05-07T17:18:33.579Z,9.83
2019-05-07T17:21:02.999Z,9.73
2019-05-07T17:23:43.710Z,10.13
2019-05-07T17:26:04.928Z,9.27
2019-05-07T17:28:34.518Z,8.50
2019-05-07T17:31:04.096Z,10.13
2019-05-07T17:33:34.897Z,8.50
2019-05-07T17:36:04.419Z,9.63
2019-05-07T17:38:33.935Z,9.73
2019-05-07T17:41:10.784Z,10.63
2019-05-07T17:43:35.834Z,10.53
2019-05-07T17:46:05.436Z,10.23
2019-05-07T17:48:34.894Z,9.00
2019-05-07T17:51:23.437Z,10.77
2019-05-07T17:53:59.420Z,10.93
2019-05-07T17:56:24.835Z,10.60
2019-05-07T17:58:54.293Z,11.20
2019-05-07T18:01:32.786Z,11.03
2019-05-07T18:04:02.943Z,10.93
2019-05-07T18:06:32.695Z,11.03
2019-05-07T18:09:02.973Z,10.30
2019-05-07T18:11:32.563Z,11.33
2019-05-07T18:14:03.787Z,13.00
2019-05-07T18:17:02.117Z,12.30
2019-05-07T18:19:33.100Z,12.07
2019-05-07T18:22:02.806Z,11.03
2019-05-07T18:24:32.670Z,11.70
2019-05-07T18:27:03.220Z,11.50
2019-05-07T18:29:32.726Z,12.47
2019-05-07T18:32:03.190Z,12.10
2019-05-07T18:34:32.913Z,14.87
2019-05-07T18:37:02.486Z,12.50
2019-05-07T18:39:32.447Z,12.90
2019-05-07T18:42:02.772Z,12.43
2019-05-07T18:44:32.356Z,11.67
2019-05-07T18:47:02.460Z,11.47
2019-05-07T18:49:32.092Z,14.73
2019-05-07T18:52:02.874Z,14.13
2019-05-07T18:54:32.662Z,12.33
2019-05-07T18:57:02.409Z,16.33
2019-05-07T18:59:33.606Z,11.40
2019-05-07T19:02:03.499Z,10.23
2019-05-07T19:04:33.071Z,10.60
2019-05-07T19:07:02.714Z,9.93
2019-05-07T19:09:32.476Z,9.87
2019-05-07T19:12:02.454Z,10.03
2019-05-07T19:14:33.325Z,9.00
2019-05-07T19:17:03.298Z,10.20
2019-05-07T19:19:32.979Z,9.93
2019-05-07T19:22:02.476Z,11.20
2019-05-07T19:24:44.645Z,10.73
2019-05-07T19:27:03.149Z,10.43
2019-05-07T19:29:32.827Z,10.03
2019-05-07T19:32:03.162Z,10.67
2019-05-07T19:34:33.192Z,10.90
2019-05-07T19:37:02.730Z,10.70
2019-05-07T19:39:32.588Z,10.93
2019-05-07T19:42:02.726Z,10.00
2019-05-07T19:44:32.219Z,9.20
2019-05-07T19:47:02.099Z,10.13
2019-05-07T19:49:32.491Z,11.00
2019-05-07T19:52:02.042Z,10.67
2019-05-07T19:54:32.423Z,10.47
2019-05-07T19:57:02.696Z,9.97
2019-05-07T19:59:32.774Z,10.87
2019-05-07T20:02:04.009Z,11.23
2019-05-07T20:04:33.534Z,10.33
2019-05-07T20:07:03.007Z,11.43
2019-05-07T20:09:34.938Z,10.43
2019-05-07T20:12:07.769Z,10.73
2019-05-07T20:14:35.738Z,11.70
2019-05-07T20:17:05.168Z,10.30
2019-05-07T20:19:34.569Z,10.63
2019-05-07T20:22:04.054Z,9.90
2019-05-07T20:24:33.566Z,9.77
2019-05-07T20:27:03.192Z,10.97
2019-05-07T20:29:32.623Z,11.00
2019-05-07T20:32:02.193Z,10.60
2019-05-07T20:34:33.233Z,10.63
2019-05-07T20:37:03.379Z,10.50
2019-05-07T20:39:33.076Z,10.10
2019-05-07T20:42:03.161Z,11.13
2019-05-07T20:44:32.789Z,10.47
2019-05-07T20:47:02.212Z,11.23
2019-05-07T20:49:32.158Z,10.93
2019-05-07T20:52:01.874Z,11.23
2019-05-07T20:54:46.135Z,10.33
2019-05-07T20:57:18.682Z,10.50
2019-05-07T20:59:48.135Z,11.93
2019-05-07T21:02:17.661Z,12.03
2019-05-07T21:04:47.244Z,11.27
2019-05-07T21:07:16.628Z,9.63
2019-05-07T21:09:46.155Z,12.07
2019-05-07T21:12:15.657Z,11.33
2019-05-07T21:14:45.155Z,11.03
2019-05-07T21:17:14.559Z,10.43
2019-05-07T21:19:44.069Z,12.07
2019-05-07T21:22:13.588Z,13.23
2019-05-07T21:24:43.054Z,11.53
2019-05-07T21:27:12.541Z,11.97
2019-05-07T21:29:42.321Z,12.03
2019-05-07T21:32:12.529Z,11.53
2019-05-07T21:34:42.437Z,11.20
2019-05-07T21:37:12.683Z,12.47
2019-05-07T21:39:42.564Z,10.97
2019-05-07T21:42:14.201Z,11.47
2019-05-07T21:44:43.187Z,10.90
2019-05-07T21:47:12.867Z,10.47
2019-05-07T21:49:43.012Z,12.03
2019-05-07T21:52:12.848Z,11.87
2019-05-07T21:54:57.898Z,12.27
2019-05-07T21:57:41.021Z,12.33
2019-05-07T22:00:26.591Z,11.47
2019-05-07T22:02:56.266Z,10.57
2019-05-07T22:05:25.854Z,11.70
2019-05-07T22:07:55.273Z,11.50
2019-05-07T22:10:24.677Z,11.60
2019-05-07T22:12:54.566Z,10.63
2019-05-07T22:15:24.429Z,11.73
2019-05-07T22:17:53.821Z,10.73
2019-05-07T22:20:23.768Z,10.20
2019-05-07T22:22:59.793Z,10.70
2019-05-07T22:25:38.839Z,11.47
2019-05-07T22:28:08.272Z,10.90
2019-05-07T22:30:45.615Z,10.10
2019-05-07T22:33:22.415Z,10.90
2019-05-07T22:35:53.248Z,11.30
2019-05-07T22:38:22.866Z,10.57
2019-05-07T22:40:52.359Z,10.13
2019-05-07T22:43:22.569Z,11.83
2019-05-07T22:45:52.163Z,11.37
2019-05-07T22:48:22.970Z,11.40
2019-05-07T22:50:52.541Z,11.87
2019-05-07T22:53:22.139Z,10.70
2019-05-07T22:55:52.557Z,11.33
2019-05-07T22:58:32.571Z,11.10
2019-05-07T23:01:05.901Z,11.70
2019-05-07T23:03:35.391Z,11.97
2019-05-07T23:06:07.988Z,12.17
2019-05-07T23:08:39.403Z,11.43
2019-05-07T23:11:09.149Z,11.23
2019-05-07T23:13:38.658Z,11.60
2019-05-07T23:16:08.351Z,12.30
2019-05-07T23:18:37.860Z,12.13
2019-05-07T23:21:07.451Z,11.23
2019-05-07T23:23:36.887Z,11.67
2019-05-07T23:26:06.301Z,12.03
2019-05-07T23:28:35.773Z,11.73
2019-05-07T23:31:05.286Z,12.10
2019-05-07T23:33:34.669Z,10.07
2019-05-07T23:36:04.218Z,11.33
2019-05-07T23:38:33.709Z,10.60
2019-05-07T23:41:32.969Z,9.90
2019-05-07T23:44:19.268Z,9.43
2019-05-07T23:46:48.819Z,10.00
2019-05-07T23:49:18.309Z,9.57
2019-05-07T23:51:47.822Z,10.47
2019-05-07T23:54:17.234Z,9.93
2019-05-07T23:56:46.624Z,9.33
2019-05-07T23:59:16.108Z,10.10
